International Virtual Aviation Organisation

Russian Federation and Kazakhstan MCD

 
UADD 300100Z 03002MPS 9999 BKN012 OVC046 M05/M08 Q1037 R13/490250 NOSIG RMK MT OBSC QFE719/0959
QNH:(hPa/inHg/mmHg)1037 / 30.62 / 778
QFE:(hPa/inHg/mmHg)956 / 28.23 / 717
Temperature-5
Dew Point-8
Visibility> 10000
Weather
Cloud CoverBKN (1200);
OVC (4600);
Transition Height5800 m./21300 ft.
Transition LevelFL220
SQUAWK